Time;durP1;ratioP1;P1;durP2;ratioP2;P2;SDS_P1;SDS_P2;PMS_P1;PMS_P2;Temp;Humidity;BMP_temperature;BMP_pressure;BME280_temperature;BME280_humidity;BME280_pressure;Samples;Min_cycle;Max_cycle;Signal;HPM_P1;HPM_P2
2021/12/04 00:00:09;;;;;;;3.33;3.03;;;;;;;6.43;59.85;99557.88;691113;28;1243;-82
2021/12/04 00:00:40;;;;;;;3.45;3.00;;;;;;;6.39;60.04;99554.34;689560;28;1366;-82
2021/12/04 00:01:26;;;;;;;3.20;3.00;;;;;;;6.42;60.24;99561.31;693143;28;1152;-82
2021/12/04 00:01:48;;;;;;;3.28;2.97;;;;;;;6.30;59.94;99544.66;690072;28;1017;-81
2021/12/04 00:02:08;;;;;;;3.20;3.00;;;;;;;6.33;60.15;99546.44;685199;28;1414;-82
2021/12/04 00:02:29;;;;;;;3.10;2.90;;;;;;;6.37;59.99;99553.44;682679;29;816;-81
2021/12/04 00:02:50;;;;;;;3.10;2.90;;;;;;;6.43;59.75;99560.47;685156;28;1915;-82
2021/12/04 00:03:11;;;;;;;3.20;3.00;;;;;;;6.39;59.79;99561.25;683270;28;1105;-81
2021/12/04 00:03:31;;;;;;;3.33;3.03;;;;;;;6.41;59.96;99556.97;685298;28;768;-82
2021/12/04 00:03:53;;;;;;;3.38;3.08;;;;;;;6.48;59.58;99556.31;684736;28;1534;-81
2021/12/04 00:04:19;;;;;;;3.72;3.30;;;;;;;6.43;59.62;99552.72;684618;28;1576;-82
2021/12/04 00:04:46;;;;;;;3.83;3.42;;;;;;;6.39;59.50;99546.56;685062;28;1556;-81
2021/12/04 00:05:09;;;;;;;3.53;3.22;;;;;;;6.42;60.03;99556.13;687443;28;1232;-81
2021/12/04 00:05:30;;;;;;;3.25;3.05;;;;;;;6.39;59.68;99545.72;682511;29;1479;-82
2021/12/04 00:05:54;;;;;;;3.30;3.00;;;;;;;6.49;59.78;99557.16;687550;28;1208;-82
2021/12/04 00:06:25;;;;;;;4.57;3.25;;;;;;;6.39;60.04;99545.72;682259;28;1249;-82
2021/12/04 00:06:46;;;;;;;4.30;2.85;;;;;;;6.42;59.70;99561.31;682572;28;1097;-82
2021/12/04 00:07:08;;;;;;;3.20;2.60;;;;;;;6.38;59.43;99556.91;682241;28;1141;-81
2021/12/04 00:07:31;;;;;;;2.78;2.58;;;;;;;6.33;59.61;99546.44;679930;29;1217;-82
2021/12/04 00:07:52;;;;;;;2.92;2.72;;;;;;;6.32;59.36;99546.38;684778;28;1286;-82
2021/12/04 00:08:13;;;;;;;3.10;2.90;;;;;;;6.39;59.70;99550.91;690347;28;1161;-82
2021/12/04 00:08:35;;;;;;;3.15;2.95;;;;;;;6.41;59.61;99549.22;687868;28;1094;-82
2021/12/04 00:09:00;;;;;;;3.05;2.85;;;;;;;6.33;59.71;99532.59;688073;28;808;-81
2021/12/04 00:09:22;;;;;;;2.90;2.80;;;;;;;6.36;59.56;99540.44;687291;28;1511;-82
2021/12/04 00:09:45;;;;;;;2.90;2.80;;;;;;;6.36;59.60;99541.31;688569;28;1757;-82
2021/12/04 00:10:06;;;;;;;3.40;3.20;;;;;;;6.36;59.48;99540.44;687774;28;1204;-82
2021/12/04 00:10:29;;;;;;;3.15;2.95;;;;;;;6.40;59.98;99539.69;686277;28;1410;-82
2021/12/04 00:10:49;;;;;;;2.90;2.80;;;;;;;6.42;59.72;99556.13;684951;28;1104;-81
2021/12/04 00:11:10;;;;;;;2.90;2.70;;;;;;;6.37;59.40;99535.31;688276;28;1102;-82
2021/12/04 00:11:32;;;;;;;3.22;3.03;;;;;;;6.40;59.48;99534.50;687447;28;1164;-82
2021/12/04 00:11:58;;;;;;;3.40;3.10;;;;;;;6.35;59.80;99534.38;693263;28;1399;-82
2021/12/04 00:12:19;;;;;;;3.17;2.97;;;;;;;6.36;59.82;99536.13;691141;28;1239;-82
2021/12/04 00:12:39;;;;;;;3.05;2.85;;;;;;;6.40;59.84;99537.09;690598;28;1109;-82
2021/12/04 00:13:00;;;;;;;3.00;2.80;;;;;;;6.43;59.77;99543.22;687935;28;855;-81
2021/12/04 00:13:20;;;;;;;2.90;2.80;;;;;;;6.39;59.34;99530.16;688222;28;1182;-82
2021/12/04 00:13:42;;;;;;;3.10;2.90;;;;;;;6.47;59.60;99549.38;685211;28;1186;-82
2021/12/04 00:14:03;;;;;;;3.00;2.70;;;;;;;6.44;59.53;99542.38;690509;28;1407;-82
2021/12/04 00:14:23;;;;;;;3.00;2.70;;;;;;;6.37;59.32;99529.22;685491;28;1695;-82
2021/12/04 00:14:45;;;;;;;3.20;2.90;;;;;;;6.43;59.58;99532.88;688991;28;1041;-82
2021/12/04 00:15:06;;;;;;;3.40;3.20;;;;;;;6.38;59.72;99533.59;687741;28;1277;-82
2021/12/04 00:15:26;;;;;;;3.17;2.97;;;;;;;6.37;59.58;99529.22;685158;28;1393;-81
2021/12/04 00:15:47;;;;;;;3.40;3.10;;;;;;;6.41;59.68;99533.66;685089;28;1130;-82
2021/12/04 00:16:08;;;;;;;3.00;2.80;;;;;;;6.42;59.54;99545.78;688434;28;1265;-82
2021/12/04 00:16:28;;;;;;;3.10;2.90;;;;;;;6.39;59.57;99537.94;685241;28;1183;-82
2021/12/04 00:16:49;;;;;;;2.60;2.50;;;;;;;6.34;59.54;99531.75;686712;28;1078;-82
2021/12/04 00:17:10;;;;;;;2.60;2.50;;;;;;;6.34;59.49;99527.47;684372;28;1222;-81
2021/12/04 00:17:32;;;;;;;2.73;2.53;;;;;;;6.39;59.62;99543.13;685196;28;808;-82
2021/12/04 00:17:52;;;;;;;2.50;2.40;;;;;;;6.29;59.56;99521.28;692069;28;1145;-82
2021/12/04 00:18:13;;;;;;;2.50;2.40;;;;;;;6.34;59.87;99531.75;689138;28;1288;-82
2021/12/04 00:18:33;;;;;;;2.60;2.50;;;;;;;6.37;59.95;99531.81;687383;28;1145;-82
2021/12/04 00:19:04;;;;;;;2.70;2.60;;;;;;;6.36;59.59;99528.38;690650;28;884;-82
2021/12/04 00:19:25;;;;;;;2.97;2.72;;;;;;;6.35;59.61;99517.97;686311;28;808;-81
2021/12/04 00:19:46;;;;;;;2.83;2.63;;;;;;;6.36;59.66;99524.88;686663;28;1763;-82
2021/12/04 00:20:12;;;;;;;2.83;2.63;;;;;;;6.40;59.46;99526.72;687818;28;1116;-82
2021/12/04 00:20:33;;;;;;;3.50;2.75;;;;;;;6.43;59.35;99538.06;693306;28;1981;-82
2021/12/04 00:21:12;;;;;;;3.42;2.83;;;;;;;6.46;59.90;99536.38;693360;28;865;-82
2021/12/04 00:21:38;;;;;;;3.10;2.90;;;;;;;6.43;59.88;99538.06;683501;28;1167;-82
2021/12/04 00:22:00;;;;;;;3.20;2.97;;;;;;;6.37;59.59;99524.03;685296;28;812;-82
2021/12/04 00:22:20;;;;;;;3.30;3.00;;;;;;;6.33;59.72;99530.00;686554;28;1142;-82
2021/12/04 00:22:41;;;;;;;3.30;3.00;;;;;;;6.35;59.64;99533.50;684867;28;1950;-82
2021/12/04 00:23:02;;;;;;;3.40;3.10;;;;;;;6.37;59.54;99522.34;689770;28;1450;-81
2021/12/04 00:23:22;;;;;;;3.30;3.00;;;;;;;6.37;59.69;99527.53;689617;28;1566;-82
2021/12/04 00:23:43;;;;;;;3.07;2.77;;;;;;;6.35;59.78;99528.31;684635;28;1252;-81
2021/12/04 00:24:04;;;;;;;2.95;2.75;;;;;;;6.41;59.61;99523.28;682488;28;1187;-82
2021/12/04 00:24:25;;;;;;;3.78;3.47;;;;;;;6.38;59.65;99520.63;682449;29;840;-82
2021/12/04 00:24:46;;;;;;;3.80;3.50;;;;;;;6.43;59.54;99532.88;688942;28;1201;-82
2021/12/04 00:25:09;;;;;;;3.17;2.97;;;;;;;6.38;59.44;99515.47;688079;28;1285;-82
2021/12/04 00:25:29;;;;;;;2.85;2.70;;;;;;;6.38;59.62;99515.47;685209;28;1201;-82
2021/12/04 00:25:50;;;;;;;2.80;2.70;;;;;;;6.36;59.44;99520.59;687730;28;1168;-82
2021/12/04 00:26:10;;;;;;;2.80;2.70;;;;;;;6.42;59.83;99532.81;685996;28;1116;-82
2021/12/04 00:26:31;;;;;;;2.80;2.70;;;;;;;6.38;59.72;99512.88;690606;28;1200;-82
2021/12/04 00:26:53;;;;;;;2.77;2.67;;;;;;;6.40;59.39;99517.22;693201;28;1085;-81
2021/12/04 00:27:14;;;;;;;3.20;3.00;;;;;;;6.38;59.61;99523.22;687638;28;1162;-82
2021/12/04 00:27:35;;;;;;;3.53;2.80;;;;;;;6.38;59.55;99520.63;685395;28;1169;-82
2021/12/04 00:27:56;;;;;;;3.35;2.70;;;;;;;6.38;59.50;99523.22;690680;28;823;-83
2021/12/04 00:28:16;;;;;;;2.65;2.40;;;;;;;6.41;59.14;99512.94;694253;28;1125;-82
2021/12/04 00:28:38;;;;;;;2.63;2.53;;;;;;;6.40;59.54;99512.03;685775;28;977;-82
2021/12/04 00:28:58;;;;;;;2.70;2.60;;;;;;;6.41;59.34;99512.94;687157;28;943;-82
2021/12/04 00:29:20;;;;;;;2.70;2.60;;;;;;;6.39;59.28;99510.28;685124;28;1061;-82
2021/12/04 00:29:41;;;;;;;2.78;2.60;;;;;;;6.39;59.26;99510.28;689038;28;1088;-82
2021/12/04 00:30:04;;;;;;;3.00;2.80;;;;;;;6.47;59.34;99517.38;685106;28;1153;-82
2021/12/04 00:30:26;;;;;;;2.95;2.75;;;;;;;6.41;59.15;99512.94;682466;29;1218;-82
2021/12/04 00:30:49;;;;;;;3.00;2.80;;;;;;;6.41;59.30;99511.22;686979;28;1249;-81
2021/12/04 00:31:09;;;;;;;3.00;2.80;;;;;;;6.41;59.36;99511.22;685737;28;1261;-82
2021/12/04 00:31:31;;;;;;;2.90;2.70;;;;;;;6.42;59.38;99509.50;685210;28;753;-81
2021/12/04 00:31:58;;;;;;;2.88;2.70;;;;;;;6.48;59.21;99512.25;685247;28;1164;-82
2021/12/04 00:32:55;;;;;;;2.60;2.50;;;;;;;6.41;59.47;99505.16;685715;28;1239;-82
2021/12/04 00:33:12;;;;;;;2.40;2.30;;;;;;;6.48;59.17;99509.66;683862;28;1244;-82
2021/12/04 00:33:35;;;;;;;2.60;2.40;;;;;;;6.51;58.97;99525.25;687535;28;1805;-82
2021/12/04 00:33:56;;;;;;;8.10;2.80;;;;;;;6.42;59.65;99501.72;688748;28;879;-82
2021/12/04 00:34:19;;;;;;;7.30;2.70;;;;;;;6.46;59.07;99526.00;685602;28;1079;-82
2021/12/04 00:34:44;;;;;;;7.32;2.88;;;;;;;6.40;59.45;99503.41;685086;28;1119;-82
2021/12/04 00:35:20;;;;;;;2.90;2.72;;;;;;;6.43;59.50;99517.31;687738;28;1591;-82
2021/12/04 00:35:58;;;;;;;2.75;2.65;;;;;;;6.47;59.48;99518.28;685131;28;1262;-82
2021/12/04 00:37:35;;;;;;;3.00;2.80;;;;;;;6.47;59.47;99507.91;684303;28;1212;-82
2021/12/04 00:49:09;;;;;;;2.80;2.60;;;;;;;6.37;59.55;99485.19;687720;28;1118;-82
2021/12/04 00:49:30;;;;;;;2.65;2.50;;;;;;;6.44;59.56;99500.03;686892;28;1551;-81
2021/12/04 00:49:50;;;;;;;2.42;2.33;;;;;;;6.46;59.18;99500.97;684669;28;1174;-82
2021/12/04 00:51:05;;;;;;;2.50;2.40;;;;;;;6.48;59.60;99507.06;686067;28;929;-82
2021/12/04 00:51:25;;;;;;;2.65;2.50;;;;;;;6.40;59.26;99485.28;687715;28;926;-81
2021/12/04 00:51:53;;;;;;;3.00;2.80;;;;;;;6.39;59.92;99494.75;688987;28;1161;-81
2021/12/04 00:52:15;;;;;;;2.90;2.70;;;;;;;6.46;59.50;99500.97;687557;28;2051;-82
2021/12/04 00:52:36;;;;;;;2.80;2.60;;;;;;;6.43;59.35;99496.59;687714;28;1435;-82
2021/12/04 00:53:16;;;;;;;2.60;2.50;;;;;;;6.47;59.83;99502.72;685151;28;827;-82
2021/12/04 00:53:37;;;;;;;2.53;2.42;;;;;;;6.41;59.46;99489.59;687424;28;1160;-82
2021/12/04 00:53:58;;;;;;;2.50;2.40;;;;;;;6.42;59.44;99493.94;687850;28;772;-82
2021/12/04 00:54:19;;;;;;;2.88;2.67;;;;;;;6.48;59.56;99503.56;690193;28;1182;-81
2021/12/04 00:54:40;;;;;;;3.00;2.80;;;;;;;6.44;58.84;99500.03;687790;28;1291;-82
2021/12/04 00:55:01;;;;;;;3.08;2.88;;;;;;;6.29;59.85;99480.72;688297;28;892;-81
2021/12/04 00:55:22;;;;;;;2.95;2.80;;;;;;;6.24;59.35;99479.72;685563;28;1044;-82
2021/12/04 00:55:43;;;;;;;2.83;2.63;;;;;;;6.29;60.00;99491.06;685062;28;1276;-82
2021/12/04 00:56:04;;;;;;;2.60;2.50;;;;;;;6.30;59.87;99492.81;690484;28;1175;-82
2021/12/04 00:56:25;;;;;;;2.50;2.40;;;;;;;6.38;59.61;99502.50;690475;28;1099;-82
2021/12/04 00:56:46;;;;;;;2.50;2.40;;;;;;;6.34;59.77;99490.28;689009;28;1330;-82
2021/12/04 00:57:06;;;;;;;2.80;2.70;;;;;;;6.34;59.67;99485.13;684887;28;1342;-82
2021/12/04 00:57:27;;;;;;;2.70;2.60;;;;;;;6.32;59.57;99486.81;687485;28;1331;-81
2021/12/04 00:57:47;;;;;;;2.80;2.70;;;;;;;6.30;59.75;99489.34;684278;28;1769;-81
2021/12/04 00:58:08;;;;;;;2.70;2.60;;;;;;;6.30;59.77;99486.75;685900;28;1546;-81
2021/12/04 00:58:29;;;;;;;2.95;2.75;;;;;;;6.29;59.58;99488.47;682180;29;1591;-82
2021/12/04 00:58:49;;;;;;;2.80;2.60;;;;;;;6.32;59.87;99492.84;684596;28;994;-81
2021/12/04 00:59:12;;;;;;;2.70;2.50;;;;;;;6.31;59.74;99491.09;685284;28;1276;-82
2021/12/04 00:59:33;;;;;;;2.70;2.50;;;;;;;6.36;59.67;99491.19;687358;28;1519;-82
2021/12/04 00:59:53;;;;;;;2.60;2.50;;;;;;;6.26;59.75;99482.34;690367;28;1279;-82
2021/12/04 01:00:14;;;;;;;2.60;2.50;;;;;;;6.37;59.72;99505.91;687536;28;1394;-82
2021/12/04 01:00:35;;;;;;;2.40;2.30;;;;;;;6.33;59.51;99489.44;683573;28;1177;-82
2021/12/04 01:00:56;;;;;;;2.50;2.40;;;;;;;6.24;59.81;99482.31;687861;28;1262;-82
2021/12/04 01:01:18;;;;;;;2.80;2.60;;;;;;;6.28;59.78;99481.53;686815;28;1777;-82
2021/12/04 01:01:40;;;;;;;3.10;2.90;;;;;;;6.31;60.06;99480.72;686770;28;1132;-82
2021/12/04 01:02:01;;;;;;;2.97;2.78;;;;;;;6.27;59.85;99479.78;690501;28;1102;-82
2021/12/04 01:02:22;;;;;;;2.83;2.63;;;;;;;6.33;59.44;99491.13;684941;28;1198;-81
2021/12/04 01:02:43;;;;;;;2.78;2.60;;;;;;;6.33;59.85;99493.72;685905;28;1910;-82
2021/12/04 01:03:03;;;;;;;2.78;2.58;;;;;;;6.28;59.72;99481.53;685434;28;1241;-82
2021/12/04 01:03:24;;;;;;;2.70;2.50;;;;;;;6.29;59.63;99474.63;685027;28;1175;-82
2021/12/04 01:03:46;;;;;;;2.40;2.20;;;;;;;6.32;59.67;99487.66;686126;28;1694;-82
2021/12/04 01:04:11;;;;;;;2.40;2.20;;;;;;;6.28;59.99;99478.94;690082;28;1040;-82
2021/12/04 01:04:32;;;;;;;2.80;2.60;;;;;;;6.32;59.56;99484.22;687881;28;835;-82
2021/12/04 01:04:52;;;;;;;3.00;2.80;;;;;;;6.28;59.95;99476.34;687709;28;1216;-82
2021/12/04 01:05:13;;;;;;;2.92;2.72;;;;;;;6.26;60.08;99478.03;685021;28;1073;-82
2021/12/04 01:05:34;;;;;;;2.95;2.75;;;;;;;6.29;60.04;99485.00;685246;28;1077;-82
2021/12/04 01:05:54;;;;;;;3.00;2.70;;;;;;;6.27;60.11;99487.53;685048;28;1077;-82
2021/12/04 01:06:16;;;;;;;3.00;2.70;;;;;;;6.24;60.16;99471.94;680872;29;1415;-82
2021/12/04 01:06:37;;;;;;;3.65;2.75;;;;;;;6.23;59.77;99472.78;685059;28;1641;-82
2021/12/04 01:06:59;;;;;;;3.50;2.70;;;;;;;6.35;60.17;99492.03;690579;28;1247;-82
2021/12/04 01:07:24;;;;;;;2.97;2.67;;;;;;;6.29;59.86;99482.41;685249;28;1753;-82
2021/12/04 01:07:45;;;;;;;2.60;2.50;;;;;;;6.22;59.70;99476.22;684043;28;1114;-82
2021/12/04 01:08:06;;;;;;;2.50;2.40;;;;;;;6.26;59.81;99478.03;682407;28;1207;-81
2021/12/04 01:08:26;;;;;;;2.50;2.40;;;;;;;6.33;59.96;99494.63;685066;28;1293;-81
2021/12/04 01:08:47;;;;;;;2.60;2.50;;;;;;;6.25;59.93;99475.38;685162;28;923;-82
2021/12/04 01:09:09;;;;;;;2.50;2.40;;;;;;;6.30;59.70;99485.06;687946;28;1005;-82
2021/12/04 01:09:30;;;;;;;2.50;2.40;;;;;;;6.32;60.37;99487.66;687533;28;1381;-82
2021/12/04 01:09:52;;;;;;;2.60;2.50;;;;;;;6.24;59.97;99478.81;692428;28;1062;-82
2021/12/04 01:10:13;;;;;;;2.80;2.60;;;;;;;6.21;60.00;99468.41;692107;28;1015;-82
2021/12/04 01:10:35;;;;;;;3.10;2.80;;;;;;;6.23;60.15;99475.38;693138;28;1178;-82
2021/12/04 01:10:56;;;;;;;2.95;2.67;;;;;;;6.23;60.10;99475.38;690653;28;807;-82
2021/12/04 01:11:16;;;;;;;3.00;2.70;;;;;;;6.30;60.16;99485.06;684481;28;1283;-82
2021/12/04 01:11:40;;;;;;;2.65;2.45;;;;;;;6.32;60.04;99481.63;687822;28;1179;-82
2021/12/04 01:12:01;;;;;;;2.90;2.70;;;;;;;6.26;60.19;99479.75;690457;28;1219;-82
2021/12/04 01:12:22;;;;;;;2.83;2.70;;;;;;;6.22;60.10;99471.03;690119;28;1234;-82
2021/12/04 01:12:43;;;;;;;2.70;2.58;;;;;;;6.20;60.59;99471.81;690376;28;1056;-82
2021/12/04 01:13:10;;;;;;;2.47;2.38;;;;;;;6.24;59.96;99478.81;690570;28;1077;-82
2021/12/04 01:13:32;;;;;;;2.42;2.33;;;;;;;6.31;60.43;99491.09;685119;28;1333;-82
2021/12/04 01:13:53;;;;;;;2.53;2.42;;;;;;;6.23;60.02;99484.84;687801;28;839;-81
2021/12/04 01:14:16;;;;;;;2.70;2.60;;;;;;;6.22;60.54;99489.16;687832;28;1893;-82
2021/12/04 01:14:37;;;;;;;2.63;2.53;;;;;;;6.14;60.44;99473.41;690416;28;1068;-82
2021/12/04 01:14:58;;;;;;;2.67;2.53;;;;;;;6.14;60.17;99468.22;685096;28;1533;-82
2021/12/04 01:15:19;;;;;;;2.80;2.60;;;;;;;6.12;60.43;99464.75;687680;28;1252;-82
2021/12/04 01:15:43;;;;;;;2.90;2.70;;;;;;;6.14;60.62;99462.19;687795;28;954;-82
2021/12/04 01:16:04;;;;;;;2.90;2.70;;;;;;;6.16;60.46;99468.28;687622;28;1516;-82
2021/12/04 01:16:24;;;;;;;2.60;2.40;;;;;;;6.17;60.64;99472.63;685076;28;1033;-81
2021/12/04 01:16:45;;;;;;;2.40;2.30;;;;;;;6.15;60.48;99479.50;685069;28;1111;-82
2021/12/04 01:17:06;;;;;;;2.50;2.30;;;;;;;6.12;60.43;99469.91;682045;28;1346;-82
2021/12/04 01:17:27;;;;;;;2.70;2.50;;;;;;;6.12;60.59;99464.75;681753;29;1399;-81
2021/12/04 01:17:47;;;;;;;2.90;2.35;;;;;;;6.13;60.47;99478.53;681403;29;1408;-82
2021/12/04 01:18:08;;;;;;;2.60;2.40;;;;;;;6.14;60.70;99469.97;680050;29;1162;-81
2021/12/04 01:18:29;;;;;;;2.50;2.30;;;;;;;6.15;60.89;99471.72;679832;29;899;-82
2021/12/04 01:18:49;;;;;;;2.93;2.73;;;;;;;6.10;60.45;99462.94;685026;28;1093;-82
2021/12/04 01:19:10;;;;;;;3.03;2.83;;;;;;;6.12;61.17;99469.03;684429;28;1271;-82
2021/12/04 01:19:31;;;;;;;3.33;3.03;;;;;;;6.09;60.59;99466.38;683872;28;1043;-82
2021/12/04 01:19:51;;;;;;;3.10;2.90;;;;;;;6.10;61.02;99465.53;687581;28;1073;-82
2021/12/04 01:20:12;;;;;;;3.03;2.83;;;;;;;6.16;60.93;99476.91;687796;28;1032;-82
2021/12/04 01:20:32;;;;;;;2.90;2.70;;;;;;;6.10;61.28;99461.25;687726;28;1305;-82
2021/12/04 01:20:53;;;;;;;2.60;2.50;;;;;;;6.10;60.84;99463.84;685054;28;1183;-82
2021/12/04 01:21:14;;;;;;;2.80;2.60;;;;;;;6.10;60.83;99465.53;688704;28;1083;-81
2021/12/04 01:21:35;;;;;;;2.85;2.65;;;;;;;6.17;61.16;99477.81;682295;29;1332;-82
2021/12/04 01:21:56;;;;;;;3.00;2.80;;;;;;;6.14;61.08;99473.41;685087;28;1203;-82
2021/12/04 01:22:20;;;;;;;2.78;2.65;;;;;;;6.08;61.42;99462.03;687047;28;1301;-82
2021/12/04 01:22:40;;;;;;;3.00;2.80;;;;;;;6.12;61.26;99459.56;689301;28;1910;-82
2021/12/04 01:23:01;;;;;;;2.95;2.85;;;;;;;6.11;60.99;99462.09;688433;28;740;-81
2021/12/04 01:23:22;;;;;;;2.92;2.72;;;;;;;6.16;61.13;99463.97;686881;28;1266;-82
2021/12/04 01:23:43;;;;;;;2.80;2.60;;;;;;;6.21;61.23;99465.81;687901;28;1077;-82
2021/12/04 01:24:04;;;;;;;2.83;2.63;;;;;;;6.16;61.33;99465.69;688384;28;1198;-82
2021/12/04 01:24:25;;;;;;;3.20;2.90;;;;;;;6.18;60.95;99463.16;689376;28;1615;-82
2021/12/04 01:24:47;;;;;;;3.10;2.90;;;;;;;6.16;61.16;99461.38;691314;28;1059;-82
2021/12/04 01:25:09;;;;;;;2.88;2.67;;;;;;;6.14;61.34;99460.47;687447;28;1216;-82
2021/12/04 01:25:29;;;;;;;2.60;2.50;;;;;;;6.19;61.27;99465.75;685717;28;883;-82
2021/12/04 01:25:50;;;;;;;3.00;2.80;;;;;;;6.15;61.22;99462.22;685331;28;950;-82
2021/12/04 01:26:10;;;;;;;3.20;3.00;;;;;;;6.18;61.48;99465.75;689990;28;1314;-82
2021/12/04 01:26:31;;;;;;;3.38;3.17;;;;;;;6.16;61.12;99460.50;685647;28;906;-82
2021/12/04 01:26:52;;;;;;;3.30;3.10;;;;;;;6.15;61.42;99463.94;685513;28;1299;-82
2021/12/04 01:27:14;;;;;;;3.23;3.03;;;;;;;6.21;61.26;99468.41;687247;28;1201;-82
2021/12/04 01:27:37;;;;;;;3.17;2.97;;;;;;;6.12;61.57;99448.31;688208;28;1271;-82
2021/12/04 01:27:57;;;;;;;3.15;2.95;;;;;;;6.09;61.24;99443.06;685729;28;777;-82
2021/12/04 01:28:18;;;;;;;3.08;2.90;;;;;;;6.14;61.24;99459.59;686504;28;1013;-82
2021/12/04 01:28:39;;;;;;;2.85;2.75;;;;;;;6.18;61.36;99453.66;683649;28;1112;-82
2021/12/04 01:29:00;;;;;;;2.70;2.60;;;;;;;6.12;61.55;99459.56;688391;28;824;-82
2021/12/04 01:29:20;;;;;;;2.53;2.42;;;;;;;6.10;61.65;99450.00;685497;28;1089;-83
2021/12/04 01:29:42;;;;;;;2.80;2.60;;;;;;;6.14;61.58;99463.06;686731;28;1012;-82
2021/12/04 01:30:06;;;;;;;3.10;2.90;;;;;;;6.16;61.17;99460.50;690991;28;1279;-82
2021/12/04 01:30:26;;;;;;;3.00;2.80;;;;;;;6.11;61.92;99457.81;690963;28;866;-82
2021/12/04 01:30:47;;;;;;;2.90;2.70;;;;;;;6.16;61.47;99465.69;687902;28;1247;-82
2021/12/04 01:31:07;;;;;;;2.80;2.60;;;;;;;6.07;61.53;99458.56;688119;28;1119;-82
2021/12/04 01:31:28;;;;;;;2.95;2.75;;;;;;;6.10;61.67;99455.16;690941;28;771;-82
2021/12/04 01:31:49;;;;;;;2.90;2.70;;;;;;;6.10;62.10;99450.00;690449;28;2568;-81
2021/12/04 01:32:11;;;;;;;2.90;2.70;;;;;;;6.13;61.65;99455.25;685816;28;2636;-81
2021/12/04 01:32:31;;;;;;;2.80;2.60;;;;;;;6.11;61.77;99451.75;683957;28;2391;-81
2021/12/04 01:32:52;;;;;;;3.00;2.80;;;;;;;6.10;61.90;99448.28;688772;28;1800;-81
2021/12/04 01:33:13;;;;;;;3.00;2.80;;;;;;;6.11;61.30;99449.16;685319;28;1096;-82
2021/12/04 01:33:33;;;;;;;3.10;2.90;;;;;;;6.12;61.09;99458.66;688207;28;1151;-81
2021/12/04 01:33:54;;;;;;;3.20;3.00;;;;;;;6.09;61.98;99448.25;688339;28;918;-81
2021/12/04 01:34:15;;;;;;;3.30;3.10;;;;;;;6.16;61.87;99466.56;687637;28;1319;-82
2021/12/04 01:34:36;;;;;;;3.30;3.05;;;;;;;6.07;61.66;99455.97;683120;28;1311;-82
2021/12/04 01:34:57;;;;;;;3.17;2.97;;;;;;;6.15;61.96;99461.34;688267;28;902;-81
2021/12/04 01:35:18;;;;;;;2.80;2.60;;;;;;;6.13;61.80;99461.31;689847;28;1388;-82
2021/12/04 01:35:39;;;;;;;2.70;2.60;;;;;;;6.09;61.64;99458.59;691469;28;994;-82
2021/12/04 01:36:11;;;;;;;2.70;2.60;;;;;;;6.15;61.80;99458.75;691020;28;835;-82
2021/12/04 01:36:32;;;;;;;3.00;2.80;;;;;;;6.09;61.79;99449.13;686812;28;1559;-82
2021/12/04 01:36:53;;;;;;;2.90;2.70;;;;;;;6.11;61.27;99460.41;688156;28;1574;-81
2021/12/04 01:37:13;;;;;;;2.90;2.70;;;;;;;6.14;61.80;99463.06;689175;28;1147;-81
2021/12/04 01:37:34;;;;;;;2.90;2.70;;;;;;;6.12;61.57;99456.97;688227;28;1243;-82
2021/12/04 01:37:55;;;;;;;2.70;2.60;;;;;;;6.12;61.74;99456.97;690974;28;1152;-82
2021/12/04 01:38:15;;;;;;;2.90;2.70;;;;;;;6.12;61.60;99458.66;688630;28;968;-82
2021/12/04 01:38:36;;;;;;;2.97;2.77;;;;;;;6.18;61.84;99469.19;685712;28;1164;-81
2021/12/04 01:38:57;;;;;;;3.00;2.80;;;;;;;6.10;61.78;99455.16;684557;28;1123;-81
2021/12/04 01:39:19;;;;;;;3.13;2.92;;;;;;;6.08;61.61;99455.13;681385;29;1183;-82
2021/12/04 01:39:39;;;;;;;3.30;3.10;;;;;;;6.09;61.99;99453.44;686282;28;933;-82
2021/12/04 01:40:00;;;;;;;3.30;3.10;;;;;;;6.14;61.31;99451.84;683000;29;1277;-82
2021/12/04 01:40:21;;;;;;;3.03;2.90;;;;;;;6.11;61.69;99451.75;682770;29;1132;-82
2021/12/04 01:40:43;;;;;;;2.90;2.80;;;;;;;6.12;61.63;99458.66;689162;28;1189;-81
2021/12/04 01:41:04;;;;;;;3.00;2.80;;;;;;;6.08;61.56;99455.13;693624;28;1388;-82
2021/12/04 01:41:25;;;;;;;3.15;2.95;;;;;;;6.07;61.63;99465.47;693656;28;884;-82
2021/12/04 01:41:46;;;;;;;3.10;2.90;;;;;;;6.10;61.81;99460.34;693773;28;1039;-82
2021/12/04 01:42:06;;;;;;;2.97;2.78;;;;;;;6.10;61.57;99447.41;686253;28;1731;-82
2021/12/04 01:42:36;;;;;;;2.80;2.60;;;;;;;6.09;61.82;99456.00;685504;28;796;-81
2021/12/04 01:42:56;;;;;;;2.90;2.70;;;;;;;6.09;61.93;99448.25;685454;28;1961;-81
2021/12/04 01:43:17;;;;;;;3.00;2.80;;;;;;;6.11;61.81;99459.50;686874;28;1062;-82
2021/12/04 01:43:38;;;;;;;2.50;2.40;;;;;;;6.14;61.82;99460.47;685737;28;1607;-82
2021/12/04 01:44:00;;;;;;;2.70;2.50;;;;;;;6.05;62.15;99451.59;687323;28;918;-82
2021/12/04 01:44:21;;;;;;;2.80;2.60;;;;;;;6.11;61.76;99467.28;686586;28;1207;-82
2021/12/04 01:44:41;;;;;;;2.90;2.70;;;;;;;6.06;62.20;99448.19;685643;28;1086;-82
2021/12/04 01:45:04;;;;;;;2.72;2.53;;;;;;;6.10;61.97;99457.75;690859;28;1223;-81
2021/12/04 01:45:26;;;;;;;3.00;2.70;;;;;;;6.10;61.98;99453.47;690248;28;1119;-81
2021/12/04 01:45:47;;;;;;;3.20;2.90;;;;;;;6.10;61.83;99463.84;690574;28;1520;-81
2021/12/04 01:46:08;;;;;;;3.22;3.03;;;;;;;6.09;62.14;99448.25;687804;28;1158;-82
2021/12/04 01:46:29;;;;;;;2.92;2.80;;;;;;;6.07;62.09;99447.34;688040;28;1300;-82
2021/12/04 01:46:55;;;;;;;2.80;2.60;;;;;;;6.07;62.32;99452.53;685160;28;1279;-82
2021/12/04 01:47:20;;;;;;;2.80;2.60;;;;;;;6.08;62.12;99452.53;685536;28;1146;-81
2021/12/04 01:47:41;;;;;;;2.70;2.50;;;;;;;6.08;62.08;99441.31;690897;28;1958;-81
2021/12/04 01:48:02;;;;;;;2.80;2.60;;;;;;;6.13;62.13;99450.06;690990;28;1164;-82
2021/12/04 01:48:23;;;;;;;2.90;2.70;;;;;;;6.10;61.91;99447.41;690101;28;1322;-82
2021/12/04 01:48:44;;;;;;;2.90;2.70;;;;;;;6.09;61.90;99443.06;686260;28;1085;-82
2021/12/04 01:49:05;;;;;;;2.90;2.70;;;;;;;6.09;62.06;99435.28;685388;28;1498;-82
2021/12/04 01:49:25;;;;;;;2.70;2.60;;;;;;;6.14;61.91;99442.34;690422;28;1014;-82
2021/12/04 01:49:52;;;;;;;3.10;2.80;;;;;;;6.14;62.32;99447.50;688119;28;1324;-81
2021/12/04 01:50:12;;;;;;;3.13;2.83;;;;;;;6.10;62.12;99440.53;690381;28;1214;-82
2021/12/04 01:50:34;;;;;;;2.97;2.77;;;;;;;6.13;62.06;99440.59;688344;28;1173;-82
2021/12/04 01:50:56;;;;;;;3.10;2.90;;;;;;;6.15;62.01;99438.03;688235;28;1208;-82
2021/12/04 01:51:16;;;;;;;3.20;3.00;;;;;;;6.13;62.27;99434.50;693530;28;1311;-81
2021/12/04 01:51:37;;;;;;;3.13;2.93;;;;;;;6.16;62.02;99448.41;687877;28;1485;-82
2021/12/04 01:51:57;;;;;;;2.90;2.72;;;;;;;6.13;61.67;99434.50;684104;28;1147;-82
2021/12/04 01:52:18;;;;;;;2.90;2.70;;;;;;;6.18;62.06;99448.47;682749;29;1197;-82
2021/12/04 01:52:39;;;;;;;2.97;2.78;;;;;;;6.11;61.99;99446.56;684127;28;1517;-81
2021/12/04 01:53:00;;;;;;;3.00;2.80;;;;;;;6.11;61.72;99434.50;691924;28;1459;-82
2021/12/04 01:53:22;;;;;;;2.90;2.70;;;;;;;6.12;61.87;99437.94;692904;28;1261;-82
2021/12/04 01:53:43;;;;;;;2.70;2.50;;;;;;;6.13;61.90;99439.69;689549;28;1313;-82
2021/12/04 01:54:04;;;;;;;2.70;2.50;;;;;;;6.15;62.06;99440.63;685450;28;1479;-82
2021/12/04 01:54:25;;;;;;;2.60;2.50;;;;;;;6.11;61.94;99437.09;690791;28;1138;-81
2021/12/04 01:54:46;;;;;;;3.00;2.80;;;;;;;6.22;61.79;99450.31;692687;28;976;-81
2021/12/04 01:55:08;;;;;;;2.80;2.70;;;;;;;6.13;61.83;99429.34;691107;28;1253;-82
2021/12/04 01:55:32;;;;;;;2.92;2.78;;;;;;;6.13;61.90;99431.94;690771;28;1389;-81
2021/12/04 01:55:55;;;;;;;2.88;2.67;;;;;;;6.12;62.02;99425.00;688246;28;1199;-81
2021/12/04 01:56:17;;;;;;;3.03;2.83;;;;;;;6.12;61.84;99428.47;681534;29;1117;-82
2021/12/04 01:56:38;;;;;;;3.40;3.10;;;;;;;6.16;61.74;99444.97;680996;29;1019;-81
2021/12/04 01:56:59;;;;;;;3.30;3.10;;;;;;;6.20;61.69;99440.75;690686;28;1132;-82
2021/12/04 01:57:21;;;;;;;3.20;3.00;;;;;;;6.17;61.52;99436.34;688986;28;1071;-81
2021/12/04 01:57:41;;;;;;;3.10;2.90;;;;;;;6.10;61.62;99430.16;683973;28;1375;-81
2021/12/04 01:58:03;;;;;;;3.10;2.90;;;;;;;6.13;62.07;99434.50;688239;28;1348;-81
2021/12/04 01:58:25;;;;;;;3.10;2.90;;;;;;;6.13;61.69;99434.50;689835;28;1142;-82
2021/12/04 01:58:45;;;;;;;3.17;2.97;;;;;;;6.16;61.77;99447.56;692623;28;1354;-82
2021/12/04 01:59:06;;;;;;;3.13;2.80;;;;;;;6.12;62.09;99436.25;690300;28;1189;-83
2021/12/04 01:59:29;;;;;;;3.47;2.88;;;;;;;6.07;61.95;99424.88;685060;28;772;-81
2021/12/04 01:59:50;;;;;;;3.50;2.90;;;;;;;6.09;61.74;99436.19;687677;28;1108;-81
2021/12/04 02:00:11;;;;;;;3.03;2.83;;;;;;;6.09;62.18;99437.88;685510;28;1059;-82
2021/12/04 02:00:40;;;;;;;2.92;2.83;;;;;;;6.09;62.26;99432.72;687895;28;1259;-82
2021/12/04 02:01:01;;;;;;;3.10;2.90;;;;;;;6.14;61.80;99439.75;685535;28;879;-82